Terminal Aerodrome Forecast
Issued by NWS Salt Lake City, UT

Home | Current Version | Previous Version | Text Only | Print | Product List | Glossary On
Versions: 1 2 3 4 5 6 7 8 9 10 11 12 13 14 15 16 17 18 19 20 21 22 23 24 25 26 27 28 29 30 31 32
000
FTUS45 KSLC 241740
TAFSLC
TAF
KSLC 241740Z 2418/2524 13011KT P6SM BKN060 BKN090
     FM242200 15014G21KT P6SM VCSH SCT025 BKN050
     FM250100 18009KT 2SM -SHSN SCT010 BKN025
     FM250500 31009KT 1SM -SN BR BKN009 OVC020
     FM250900 31006KT 6SM -SHSN SCT015 BKN030
     FM251200 16006KT P6SM VCSH SCT020 BKN040
     FM251600 16009KT P6SM SCT040 BKN080=

USA.gov is the U.S. government's official web portal to all federal, state and local government web resources and services.